Asheboro, NC

5:52 PM EDT on March 25, 2017 (GMT -0400)
Asheboro Municipal

Weather History for KHBI - January, 2013

Change the Weather History Date:

Saturday, January 12, 2013

  Actual Average Record
Temperature  
Mean Temperature 56 °F -  
Max Temperature 67 °F 48 °F 68 °F (2005)
Min Temperature 45 °F 27 °F 10 °F (1981)
Degree Days  
Heating Degree Days 9    
Growing Degree Days 6 (Base 50)    
Moisture  
Dew Point 54 °F    
Average Humidity 97    
Maximum Humidity 100    
Minimum Humidity 81    
Precipitation  
Precipitation 0.01 in - - ()
Sea Level Pressure  
Sea Level Pressure 30.16 in    
Wind  
Wind Speed 0 mph (SW)    
Max Wind Speed 5 mph    
Max Gust Speed -    
Visibility 3 miles    
Events Fog    
Averages and records for this station are not official NWS values.
T = Trace of Precipitation, MM = Missing Value Source: NWS Daily Summary

Daily Weather History Graph

Daily Weather History Graph

Search for Another Location

Airport or City:

Trip Planner

Search our weather history database for the weather conditions in past years. The results will help you decide how hot, cold, wet, or windy it might be!

Date:

Astronomy

Jan. 12, 2013 Rise Set
Actual Time 7:29 AM EST 5:27 PM EST
Civil Twilight 7:01 AM EST 5:54 PM EST
Nautical Twilight 6:29 AM EST 6:26 PM EST
Astronomical Twilight 5:59 AM EST 6:57 PM EST
Moon 7:50 AM EST (1/12) 6:49 PM EST (1/12)
Length of Visible Light 10h 53m
Length of Day
9h 57m
New Moon, 1% of the Moon is Illuminated
Jan 12
New Moon
Jan 18
First Quarter
Jan 26
Full
Feb 3
Last Quarter
Feb 10
New

Hourly Weather History & Observations

Time (EST) Temp. Dew Point Humidity Pressure Visibility Wind Dir Wind Speed Gust Speed Precip Events Conditions
12:15 AM 45.5 °F 45.5 °F 100% 30.21 in 0.2 mi Calm Calm - N/A Fog Fog
12:35 AM 45.5 °F 45.5 °F 100% 30.19 in 0.2 mi Calm Calm - N/A Fog Fog
12:55 AM 45.5 °F 45.5 °F 100% 30.19 in 0.2 mi Calm Calm - N/A Fog Fog
1:15 AM 45.7 °F 45.7 °F 100% 30.18 in 0.5 mi Calm Calm - N/A Fog Fog
1:35 AM 45.9 °F 45.9 °F 100% 30.18 in 1.5 mi Calm Calm - N/A   Overcast
1:55 AM 46.0 °F 46.0 °F 100% 30.19 in 2.5 mi Calm Calm - N/A   Overcast
2:35 AM 46.4 °F 46.4 °F 100% 30.17 in 0.2 mi Calm Calm - N/A Fog Fog
2:55 AM 46.6 °F 46.6 °F 100% 30.17 in 0.5 mi Calm Calm - N/A Fog Fog
3:15 AM 46.4 °F 46.4 °F 100% 30.18 in 0.2 mi Calm Calm - N/A Fog Fog
3:35 AM 46.4 °F 46.4 °F 100% 30.17 in 0.2 mi Calm Calm - N/A Fog Fog
3:55 AM 46.4 °F 46.4 °F 100% 30.17 in 0.2 mi Calm Calm - N/A Fog Fog
4:15 AM 46.4 °F 46.4 °F 100% 30.17 in 0.2 mi Calm Calm - N/A Fog Fog
4:35 AM 46.6 °F 46.6 °F 100% 30.16 in 0.2 mi Calm Calm - N/A Fog Fog
4:55 AM 46.8 °F 46.8 °F 100% 30.15 in 0.2 mi Calm Calm - N/A Fog Fog
5:15 AM 47.1 °F 47.1 °F 100% 30.15 in 0.2 mi Calm Calm - N/A Fog Fog
5:35 AM 47.1 °F 47.1 °F 100% 30.15 in 0.2 mi Calm Calm - N/A Fog Fog
5:55 AM 47.3 °F 47.3 °F 100% 30.15 in 0.2 mi Calm Calm - N/A Fog Fog
6:15 AM 47.5 °F 47.5 °F 100% 30.16 in 0.2 mi Calm Calm - N/A Fog Fog
6:35 AM 47.3 °F 47.3 °F 100% 30.16 in 0.2 mi Calm Calm - N/A Fog Fog
6:55 AM 47.3 °F 47.3 °F 100% 30.17 in 0.2 mi Calm Calm - N/A Fog Fog
7:15 AM 47.3 °F 47.3 °F 100% 30.18 in 0.2 mi Calm Calm - N/A Fog Fog
7:35 AM 47.3 °F 47.3 °F 100% 30.17 in 0.2 mi Calm Calm - 0.01 in Fog Fog
7:55 AM 47.5 °F 47.5 °F 100% 30.18 in 0.2 mi Calm Calm - 0.01 in Fog Fog
8:15 AM 47.5 °F 47.5 °F 100% 30.19 in 0.2 mi Calm Calm - N/A Fog Fog
8:35 AM 47.7 °F 47.7 °F 100% 30.19 in 0.2 mi Calm Calm - N/A Fog Fog
8:55 AM 48.2 °F 48.2 °F 100% 30.19 in 0.2 mi Calm Calm - N/A Fog Fog
9:15 AM 49.6 °F 49.6 °F 100% 30.19 in 0.2 mi Calm Calm - N/A Fog Fog
9:35 AM 51.8 °F 51.8 °F 100% 30.21 in 0.2 mi SSW 3.5 mph - N/A Fog Fog
9:55 AM 52.9 °F 52.9 °F 100% 30.21 in 0.2 mi SSW 3.5 mph - N/A Fog Fog
10:15 AM 53.8 °F 53.8 °F 100% 30.21 in 0.2 mi SSW 3.5 mph - N/A Fog Fog
10:35 AM 54.7 °F 54.7 °F 100% 30.21 in 0.2 mi Calm Calm - N/A Fog Fog
10:55 AM 55.2 °F 55.2 °F 100% 30.19 in 0.5 mi SSW 4.6 mph - N/A Fog Fog
11:15 AM 56.3 °F 56.3 °F 100% 30.19 in 1.2 mi SSW 3.5 mph - N/A   Overcast
11:35 AM 57.0 °F 57.0 °F 100% 30.18 in 2.5 mi SW 4.6 mph - N/A   Overcast
11:55 AM 57.7 °F 57.7 °F 100% 30.17 in 3.0 mi Calm Calm - N/A   Overcast
12:15 PM 58.8 °F 58.8 °F 100% 30.16 in 4.0 mi Calm Calm - N/A   Overcast
12:56 PM 62.6 °F 62.6 °F 100% 30.15 in 7.0 mi SW 4.6 mph - N/A   Clear
1:35 PM 64.9 °F 61.3 °F 88% 30.15 in 7.0 mi WSW 4.6 mph - N/A   Light Drizzle
1:55 PM 66.0 °F 61.3 °F 85% 30.15 in 10.0 mi WSW 4.6 mph - N/A   Clear
2:15 PM 66.2 °F 61.2 °F 84% 30.15 in 10.0 mi Calm Calm - N/A   Clear
2:35 PM 66.6 °F 61.2 °F 83% 30.15 in 10.0 mi Calm Calm - N/A   Clear
2:55 PM 67.1 °F 61.2 °F 81% 30.15 in 10.0 mi SW 3.5 mph - N/A   Clear
3:15 PM 67.5 °F 61.5 °F 81% 30.15 in 10.0 mi Calm Calm - N/A   Clear
3:35 PM 67.5 °F 61.5 °F 81% 30.15 in 10.0 mi South 3.5 mph - N/A   Clear
3:55 PM 67.6 °F 61.5 °F 81% 30.14 in 10.0 mi Calm Calm - N/A   Clear
4:15 PM 67.5 °F 61.7 °F 82% 30.15 in 10.0 mi Calm Calm - N/A   Scattered Clouds
4:35 PM 66.7 °F 62.6 °F 86% 30.14 in 10.0 mi Calm Calm - N/A   Scattered Clouds
4:55 PM 66.2 °F 62.8 °F 89% 30.14 in 10.0 mi Calm Calm - N/A   Scattered Clouds
5:15 PM 65.3 °F 62.6 °F 91% 30.14 in 10.0 mi Calm Calm - N/A   Clear
5:35 PM 63.3 °F 62.1 °F 96% 30.14 in 7.0 mi Calm Calm - N/A   Clear
5:55 PM 62.1 °F 61.5 °F 98% 30.14 in 7.0 mi Calm Calm - N/A   Clear
6:15 PM 61.7 °F 61.0 °F 97% 30.13 in 10.0 mi Calm Calm - N/A   Clear
6:35 PM 60.6 °F 60.3 °F 99% 30.13 in 7.0 mi Calm Calm - N/A   Clear
6:55 PM 59.4 °F 59.4 °F 100% 30.13 in 5.0 mi Calm Calm - N/A   Clear
7:15 PM 58.6 °F 58.6 °F 100% 30.13 in 4.0 mi Calm Calm - N/A   Clear
7:35 PM 58.6 °F 58.6 °F 100% 30.13 in 1.8 mi Calm Calm - N/A   Mist
8:15 PM 58.3 °F 58.3 °F 100% 30.14 in 3.0 mi Calm Calm - N/A   Clear
8:35 PM 57.0 °F 57.0 °F 100% 30.14 in 3.0 mi Calm Calm - N/A   Clear
8:55 PM 57.6 °F 57.6 °F 100% 30.14 in 4.0 mi Calm Calm - N/A   Clear
9:35 PM 55.9 °F 55.9 °F 100% 30.13 in 4.0 mi Calm Calm - N/A   Clear
9:55 PM 55.9 °F 55.9 °F 100% 30.13 in 4.0 mi Calm Calm - N/A   Clear
10:15 PM 56.7 °F 56.7 °F 100% 30.13 in 4.0 mi Calm Calm - N/A   Clear
10:35 PM 56.1 °F 56.1 °F 100% 30.14 in 2.5 mi Calm Calm - N/A   Clear
10:55 PM 56.3 °F 56.3 °F 100% 30.13 in 1.5 mi Calm Calm - N/A   Mist
11:15 PM 56.1 °F 56.1 °F 100% 30.13 in 1.8 mi Calm Calm - N/A   Mist
11:35 PM 55.2 °F 55.2 °F 100% 30.13 in 0.8 mi Calm Calm - N/A   Mist
11:55 PM 54.0 °F 54.0 °F 100% 30.13 in 1.5 mi Calm Calm - N/A   Scattered Clouds